Time;durP1;ratioP1;P1;durP2;ratioP2;P2;SDS_P1;SDS_P2;PMS_P1;PMS_P2;Temp;Humidity;BMP_temperature;BMP_pressure;BME280_temperature;BME280_humidity;BME280_pressure;Samples;Min_cycle;Max_cycle;Signal;HPM_P1;HPM_P2
2023/02/15 00:01:32;;;;;;;33.03;14.18;;;3.30;99.60;;;;;;5035519;28;20039;-63
2023/02/15 00:03:58;;;;;;;33.72;14.98;;;3.30;99.60;;;;;;5034268;28;20139;-64
2023/02/15 00:06:24;;;;;;;28.95;13.70;;;3.30;99.70;;;;;;5038876;28;20064;-63
2023/02/15 00:08:50;;;;;;;35.13;16.10;;;3.20;99.80;;;;;;5036219;28;20061;-63
2023/02/15 00:11:39;;;;;;;28.38;14.48;;;3.20;99.90;;;;;;5033293;28;20082;-63
2023/02/15 00:14:13;;;;;;;30.52;14.10;;;3.20;99.90;;;;;;5033072;28;20118;-63
2023/02/15 00:16:40;;;;;;;32.15;15.15;;;3.20;99.90;;;;;;5035069;28;20025;-63
2023/02/15 00:19:06;;;;;;;37.33;16.88;;;3.10;99.80;;;;;;5033446;28;20115;-63
2023/02/15 00:21:34;;;;;;;28.77;14.38;;;3.10;98.90;;;;;;5030647;28;20024;-64
2023/02/15 00:24:01;;;;;;;30.67;14.50;;;3.10;98.50;;;;;;5034413;28;20033;-63
2023/02/15 00:26:28;;;;;;;31.25;14.13;;;3.00;98.50;;;;;;5032374;28;20029;-63
2023/02/15 00:28:54;;;;;;;30.85;14.23;;;2.90;98.70;;;;;;5032265;28;20071;-63
2023/02/15 00:31:21;;;;;;;36.35;16.60;;;2.80;98.70;;;;;;5038018;28;20036;-63
2023/02/15 00:33:46;;;;;;;46.50;18.52;;;2.70;98.90;;;;;;5030171;28;20025;-63
2023/02/15 00:36:13;;;;;;;43.67;18.88;;;2.70;99.00;;;;;;5031074;28;20087;-63
2023/02/15 00:38:39;;;;;;;45.47;19.52;;;2.70;98.90;;;;;;5031329;28;20128;-63
2023/02/15 00:41:07;;;;;;;43.00;17.42;;;2.70;98.90;;;;;;5016226;28;20037;-63
2023/02/15 00:43:33;;;;;;;41.78;19.98;;;2.60;99.10;;;;;;5020682;28;20021;-63
2023/02/15 00:46:01;;;;;;;39.95;18.00;;;2.60;99.20;;;;;;5036617;28;20099;-63
2023/02/15 00:48:27;;;;;;;39.33;17.13;;;2.60;99.20;;;;;;5035201;28;20032;-63
2023/02/15 00:50:56;;;;;;;42.28;17.42;;;2.60;99.30;;;;;;5031313;28;20032;-63
2023/02/15 00:53:22;;;;;;;41.08;17.88;;;2.60;99.50;;;;;;5034963;28;20148;-62
2023/02/15 00:55:48;;;;;;;40.45;16.73;;;2.60;99.60;;;;;;5014606;28;20543;-63
2023/02/15 00:58:14;;;;;;;36.05;15.80;;;2.60;99.80;;;;;;5032067;28;20032;-63
2023/02/15 01:00:42;;;;;;;36.13;15.73;;;2.70;99.90;;;;;;5024827;28;20155;-63
2023/02/15 01:03:08;;;;;;;39.15;17.05;;;2.60;99.90;;;;;;5030528;28;20060;-63
2023/02/15 01:05:35;;;;;;;37.72;16.65;;;2.70;99.90;;;;;;5013870;28;20036;-63
2023/02/15 01:08:03;;;;;;;34.33;14.98;;;2.70;99.90;;;;;;5018212;28;20587;-64
2023/02/15 01:10:29;;;;;;;40.10;16.98;;;2.70;99.90;;;;;;5017138;28;20032;-64
2023/02/15 01:12:56;;;;;;;37.22;16.55;;;2.70;99.90;;;;;;5029528;28;20021;-64
2023/02/15 01:15:22;;;;;;;39.25;16.08;;;2.60;99.80;;;;;;5029196;28;20040;-63
2023/02/15 01:17:52;;;;;;;39.08;14.82;;;2.60;99.40;;;;;;5032427;28;20057;-63
2023/02/15 01:20:27;;;;;;;46.33;17.83;;;2.60;99.30;;;;;;5030183;28;20033;-63
2023/02/15 01:22:54;;;;;;;37.28;16.13;;;2.60;99.30;;;;;;5026605;28;20036;-63
2023/02/15 01:25:22;;;;;;;40.28;17.10;;;2.50;99.60;;;;;;5027739;28;20037;-63
2023/02/15 01:27:48;;;;;;;37.28;16.98;;;2.50;99.80;;;;;;5031090;28;20831;-64
2023/02/15 01:30:15;;;;;;;42.90;16.67;;;2.50;99.90;;;;;;4995710;28;20032;-63
2023/02/15 01:32:42;;;;;;;35.83;15.80;;;2.50;99.90;;;;;;5035264;28;20155;-63
2023/02/15 01:35:08;;;;;;;41.30;16.38;;;2.50;99.90;;;;;;5032544;28;20029;-63
2023/02/15 01:37:35;;;;;;;45.38;18.05;;;2.50;99.90;;;;;;5011554;28;20056;-63
2023/02/15 01:40:07;;;;;;;42.47;18.70;;;2.50;99.90;;;;;;5012084;28;20029;-63
2023/02/15 01:42:33;;;;;;;37.38;16.65;;;2.50;99.90;;;;;;5031502;28;20025;-63
2023/02/15 01:45:02;;;;;;;40.70;15.98;;;2.50;99.70;;;;;;5027057;28;20772;-63
2023/02/15 01:47:39;;;;;;;32.03;14.25;;;2.50;99.70;;;;;;5030360;28;20029;-63
2023/02/15 01:50:16;;;;;;;32.00;13.98;;;2.40;99.60;;;;;;5031717;28;20114;-63
2023/02/15 01:53:05;;;;;;;36.03;16.42;;;2.40;99.70;;;;;;5028358;28;20508;-63
2023/02/15 01:55:39;;;;;;;44.53;17.98;;;2.40;99.90;;;;;;5022041;28;20041;-64
2023/02/15 01:58:06;;;;;;;35.65;16.50;;;2.50;99.50;;;;;;5029603;28;20076;-63
2023/02/15 02:00:33;;;;;;;37.60;16.20;;;2.50;99.10;;;;;;5010402;28;20030;-63
2023/02/15 02:02:59;;;;;;;34.90;16.05;;;2.50;99.00;;;;;;5028481;28;20065;-63
2023/02/15 02:05:25;;;;;;;39.42;16.50;;;2.60;98.80;;;;;;5011751;28;20040;-63
2023/02/15 02:07:54;;;;;;;34.80;15.27;;;2.60;98.60;;;;;;5032731;28;20037;-63
2023/02/15 02:10:23;;;;;;;39.85;16.75;;;2.50;98.70;;;;;;5017047;28;20032;-63
2023/02/15 02:12:58;;;;;;;37.15;17.25;;;2.50;98.80;;;;;;5034888;28;20028;-63
2023/02/15 02:15:49;;;;;;;45.65;17.73;;;2.50;98.80;;;;;;5020052;28;20056;-63
2023/02/15 02:18:16;;;;;;;34.75;15.40;;;2.40;98.70;;;;;;5032107;28;20032;-63
2023/02/15 02:20:59;;;;;;;37.40;16.02;;;2.40;98.60;;;;;;5038453;28;20033;-63
2023/02/15 02:24:02;;;;;;;27.95;14.60;;;2.40;98.40;;;;;;5037363;28;20037;-64
2023/02/15 02:26:46;;;;;;;36.60;16.23;;;2.40;98.40;;;;;;5016719;28;20466;-64
2023/02/15 02:29:52;;;;;;;40.50;17.92;;;2.30;98.50;;;;;;5032972;28;20135;-64
2023/02/15 02:32:48;;;;;;;42.63;18.92;;;2.30;98.30;;;;;;4985582;28;20178;-63
2023/02/15 02:35:29;;;;;;;38.80;17.48;;;2.20;98.40;;;;;;5039516;28;20036;-63
2023/02/15 02:38:16;;;;;;;43.30;19.13;;;2.20;98.40;;;;;;5034844;28;20022;-63
2023/02/15 02:41:06;;;;;;;42.65;19.13;;;2.10;98.60;;;;;;5036034;28;20048;-63
2023/02/15 02:43:54;;;;;;;48.85;18.95;;;2.10;98.70;;;;;;5030381;28;20037;-63
2023/02/15 02:46:34;;;;;;;41.13;18.77;;;2.10;98.70;;;;;;5016432;28;20139;-63
2023/02/15 02:49:01;;;;;;;39.20;17.20;;;2.00;98.90;;;;;;5031767;28;20518;-64
2023/02/15 02:51:30;;;;;;;50.10;19.08;;;2.00;99.30;;;;;;5039413;28;20031;-63
2023/02/15 02:54:04;;;;;;;42.03;17.35;;;2.00;99.50;;;;;;5021828;28;20825;-63
2023/02/15 02:56:42;;;;;;;46.42;18.65;;;2.00;99.80;;;;;;5035559;28;20138;-63
2023/02/15 02:59:17;;;;;;;40.92;16.13;;;2.00;99.90;;;;;;5020461;28;20116;-64
2023/02/15 03:01:50;;;;;;;51.33;19.92;;;2.00;99.90;;;;;;5019849;28;20277;-63
2023/02/15 03:04:32;;;;;;;44.65;17.10;;;2.00;99.90;;;;;;5021551;28;20187;-63
2023/02/15 03:07:02;;;;;;;42.45;19.02;;;2.10;99.90;;;;;;5015939;28;20037;-63
2023/02/15 03:09:42;;;;;;;52.42;19.85;;;2.10;99.90;;;;;;5034913;28;20036;-63
2023/02/15 03:12:16;;;;;;;48.50;19.55;;;2.10;99.90;;;;;;5014750;28;20033;-63
2023/02/15 03:14:50;;;;;;;41.72;17.83;;;2.10;99.90;;;;;;5038916;28;20111;-63
2023/02/15 03:17:18;;;;;;;58.30;21.60;;;2.10;99.90;;;;;;5037175;28;20052;-64
2023/02/15 03:19:46;;;;;;;48.65;20.42;;;2.20;99.90;;;;;;5035442;28;20053;-64
2023/02/15 03:22:22;;;;;;;52.03;20.88;;;2.30;99.90;;;;;;5036885;28;20043;-64
2023/02/15 03:24:59;;;;;;;49.03;19.83;;;2.30;99.90;;;;;;5014585;28;20034;-64
2023/02/15 03:27:32;;;;;;;44.45;18.17;;;2.40;99.90;;;;;;5034968;28;20095;-63
2023/02/15 03:30:03;;;;;;;47.80;20.20;;;2.30;99.90;;;;;;5031784;28;20548;-63
2023/02/15 03:32:32;;;;;;;39.20;17.70;;;2.30;99.90;;;;;;5022847;28;20743;-63
2023/02/15 03:34:58;;;;;;;49.30;19.25;;;2.30;99.60;;;;;;5030880;28;20033;-63
2023/02/15 03:37:41;;;;;;;45.35;18.00;;;2.40;99.90;;;;;;5039558;28;20039;-63
2023/02/15 03:43:27;;;;;;;49.95;18.27;;;2.30;99.90;;;;;;5032248;28;20033;-62
2023/02/15 03:45:57;;;;;;;48.03;19.00;;;2.30;99.90;;;;;;5018880;28;20031;-63
2023/02/15 03:48:31;;;;;;;45.40;19.38;;;2.30;99.90;;;;;;5034493;28;20111;-62
2023/02/15 03:53:50;;;;;;;43.78;17.90;;;2.30;99.90;;;;;;5033726;28;20044;-62
2023/02/15 03:56:15;;;;;;;39.25;16.85;;;2.30;99.90;;;;;;5035281;28;20564;-62
2023/02/15 04:01:58;;;;;;;45.28;19.90;;;2.20;99.90;;;;;;5035781;28;20029;-62
2023/02/15 04:04:38;;;;;;;47.80;17.42;;;2.30;99.90;;;;;;5035964;28;20041;-62
2023/02/15 04:07:07;;;;;;;52.17;19.98;;;2.30;99.90;;;;;;5033081;28;20061;-62
2023/02/15 04:12:17;;;;;;;54.78;19.63;;;2.30;99.90;;;;;;5029877;28;20098;-63
2023/02/15 04:17:27;;;;;;;54.47;20.45;;;2.30;99.90;;;;;;5034235;28;20432;-62
2023/02/15 04:25:22;;;;;;;48.75;18.60;;;2.30;99.90;;;;;;5029628;28;20503;-62
2023/02/15 04:27:52;;;;;;;49.70;18.73;;;2.40;99.90;;;;;;5034219;28;20029;-62
2023/02/15 04:30:20;;;;;;;47.85;19.85;;;2.40;99.90;;;;;;5031188;28;20131;-62
2023/02/15 04:32:46;;;;;;;47.05;18.92;;;2.40;99.90;;;;;;5030188;28;20036;-62
2023/02/15 04:35:13;;;;;;;46.45;18.33;;;2.40;99.90;;;;;;5028589;28;20491;-63
2023/02/15 04:37:39;;;;;;;46.13;19.33;;;2.40;99.90;;;;;;5031903;28;20033;-62
2023/02/15 04:40:07;;;;;;;52.47;20.48;;;2.40;99.90;;;;;;5031500;28;20037;-62
2023/02/15 04:42:33;;;;;;;45.38;18.70;;;2.40;99.90;;;;;;5034691;28;20467;-62
2023/02/15 04:44:58;;;;;;;49.42;20.02;;;2.40;99.90;;;;;;5029645;28;20036;-62
2023/02/15 04:47:24;;;;;;;46.78;18.15;;;2.40;99.90;;;;;;5026830;28;20037;-62
2023/02/15 04:49:50;;;;;;;48.20;18.90;;;2.40;99.90;;;;;;5032033;28;20025;-63
2023/02/15 04:52:17;;;;;;;46.63;18.08;;;2.40;99.90;;;;;;5030369;28;20539;-63
2023/02/15 04:54:44;;;;;;;45.33;17.90;;;2.40;99.80;;;;;;5027063;28;20518;-62
2023/02/15 04:57:09;;;;;;;45.67;17.83;;;2.40;99.90;;;;;;5026292;28;20429;-62
2023/02/15 04:59:35;;;;;;;44.78;18.08;;;2.40;99.90;;;;;;5032453;28;20025;-62
2023/02/15 05:02:01;;;;;;;55.38;19.70;;;2.50;99.90;;;;;;5027489;28;20114;-62
2023/02/15 05:04:27;;;;;;;57.97;20.13;;;2.50;99.90;;;;;;5034789;28;20404;-62
2023/02/15 05:06:53;;;;;;;48.70;19.25;;;2.60;99.90;;;;;;5031954;28;20037;-62
2023/02/15 05:09:19;;;;;;;50.88;19.83;;;2.50;99.90;;;;;;5033829;28;20056;-62
2023/02/15 05:11:45;;;;;;;49.22;19.88;;;2.60;99.90;;;;;;5028685;28;20543;-62
2023/02/15 05:14:10;;;;;;;45.38;18.98;;;2.60;99.90;;;;;;5028445;28;20033;-62
2023/02/15 05:16:36;;;;;;;43.10;17.10;;;2.60;99.90;;;;;;5029468;28;20021;-62
2023/02/15 05:19:02;;;;;;;43.00;17.63;;;2.60;99.90;;;;;;5027008;28;20082;-62
2023/02/15 05:21:28;;;;;;;52.65;18.05;;;2.60;99.90;;;;;;5034842;28;20642;-62
2023/02/15 05:23:54;;;;;;;41.70;16.73;;;2.70;99.90;;;;;;5028978;28;20040;-62
2023/02/15 05:29:08;;;;;;;35.83;16.27;;;2.70;99.90;;;;;;5030699;28;20235;-62
2023/02/15 05:31:34;;;;;;;42.00;17.10;;;2.80;99.90;;;;;;5034383;28;20033;-62
2023/02/15 05:34:00;;;;;;;35.15;16.00;;;2.80;99.90;;;;;;5029578;28;20082;-62
2023/02/15 05:36:26;;;;;;;42.45;16.38;;;2.80;99.90;;;;;;5028888;28;20029;-62
2023/02/15 05:38:52;;;;;;;34.88;15.63;;;2.80;99.90;;;;;;5030281;28;20032;-62
2023/02/15 05:41:18;;;;;;;35.63;15.20;;;2.90;99.90;;;;;;5031947;28;20033;-62
2023/02/15 05:43:43;;;;;;;38.40;15.20;;;2.90;99.90;;;;;;5031997;28;20036;-62
2023/02/15 05:46:10;;;;;;;35.15;15.68;;;2.90;99.90;;;;;;5029599;28;20045;-62
2023/02/15 05:48:36;;;;;;;30.60;13.45;;;2.90;99.90;;;;;;5028453;28;20032;-62
2023/02/15 05:51:07;;;;;;;43.10;15.18;;;2.90;99.90;;;;;;5030596;28;20444;-62
2023/02/15 05:53:36;;;;;;;51.55;15.82;;;2.90;99.90;;;;;;5023881;28;20029;-62
2023/02/15 05:56:03;;;;;;;54.28;16.58;;;2.90;99.90;;;;;;5027173;28;20112;-62
2023/02/15 05:58:32;;;;;;;37.55;16.77;;;2.80;99.90;;;;;;5027217;28;20714;-62
2023/02/15 06:00:58;;;;;;;39.28;16.40;;;2.80;99.90;;;;;;5027553;28;20025;-62
2023/02/15 06:03:25;;;;;;;38.55;15.98;;;2.70;99.90;;;;;;5028815;28;20107;-62
2023/02/15 06:05:52;;;;;;;40.45;16.00;;;2.70;99.90;;;;;;5028945;28;20063;-62
2023/02/15 06:08:18;;;;;;;36.88;15.68;;;2.70;99.90;;;;;;5031923;28;20029;-62
2023/02/15 06:10:45;;;;;;;35.45;14.93;;;2.70;99.90;;;;;;5034328;28;20041;-62
2023/02/15 06:13:11;;;;;;;36.53;14.98;;;2.70;99.90;;;;;;5027579;28;20075;-62
2023/02/15 06:15:37;;;;;;;35.53;14.90;;;2.70;99.90;;;;;;5029496;28;20026;-62
2023/02/15 06:18:03;;;;;;;36.83;15.23;;;2.80;99.90;;;;;;5033647;28;20032;-61
2023/02/15 06:20:29;;;;;;;35.40;15.52;;;2.70;99.90;;;;;;5031886;28;20036;-62
2023/02/15 06:22:54;;;;;;;32.70;14.75;;;2.80;99.90;;;;;;5028370;28;20544;-62
2023/02/15 06:25:20;;;;;;;36.67;15.45;;;2.70;99.90;;;;;;5033334;28;20037;-62
2023/02/15 06:27:46;;;;;;;35.17;15.15;;;2.70;99.90;;;;;;5026345;28;20107;-62
2023/02/15 06:30:12;;;;;;;45.83;16.08;;;2.70;99.90;;;;;;5028024;28;20037;-62
2023/02/15 06:32:38;;;;;;;39.00;14.95;;;2.70;99.90;;;;;;5030240;28;20101;-62
2023/02/15 06:35:04;;;;;;;38.33;15.63;;;2.60;99.90;;;;;;5032196;28;20033;-62
2023/02/15 06:37:30;;;;;;;35.63;15.07;;;2.60;99.90;;;;;;5013852;28;20401;-62
2023/02/15 06:39:56;;;;;;;33.38;14.40;;;2.40;99.90;;;;;;5031805;28;20029;-62
2023/02/15 06:42:23;;;;;;;37.58;16.40;;;2.40;99.90;;;;;;5031979;28;20032;-62
2023/02/15 06:44:49;;;;;;;33.22;14.13;;;2.50;99.90;;;;;;5025915;28;20032;-62
2023/02/15 06:47:15;;;;;;;38.17;15.98;;;2.50;99.90;;;;;;5025633;28;20412;-62
2023/02/15 06:49:40;;;;;;;35.00;15.65;;;2.60;99.90;;;;;;5028590;28;20033;-65
2023/02/15 06:52:06;;;;;;;39.42;16.83;;;2.60;99.90;;;;;;5031352;28;20907;-64
2023/02/15 06:54:32;;;;;;;40.67;16.50;;;2.60;99.90;;;;;;5033935;28;20033;-62
2023/02/15 06:56:58;;;;;;;36.38;15.32;;;2.70;99.90;;;;;;5033371;28;20468;-62
2023/02/15 06:59:23;;;;;;;41.45;17.20;;;2.70;99.90;;;;;;5032894;28;20052;-62
2023/02/15 07:01:49;;;;;;;36.53;15.63;;;2.70;99.90;;;;;;5030714;28;20591;-63
2023/02/15 07:04:15;;;;;;;40.78;16.80;;;2.80;99.90;;;;;;5031926;28;20029;-62
2023/02/15 07:06:41;;;;;;;37.65;15.45;;;2.80;99.90;;;;;;5034520;28;20045;-63
2023/02/15 07:09:07;;;;;;;41.40;17.15;;;2.80;99.90;;;;;;5036859;28;20025;-62
2023/02/15 07:14:18;;;;;;;43.13;16.92;;;2.90;99.70;;;;;;5031993;28;20048;-62
2023/02/15 07:16:44;;;;;;;40.20;16.10;;;2.90;99.60;;;;;;5036819;28;20112;-66
2023/02/15 07:19:10;;;;;;;41.80;17.08;;;2.90;99.60;;;;;;5035431;28;20029;-62
2023/02/15 07:21:36;;;;;;;37.53;15.70;;;3.00;99.60;;;;;;5033283;28;20033;-62
2023/02/15 07:24:03;;;;;;;39.85;16.83;;;3.00;99.50;;;;;;5033866;28;20044;-63
2023/02/15 07:26:28;;;;;;;52.78;18.55;;;3.00;99.60;;;;;;5039069;28;20037;-63
2023/02/15 07:28:54;;;;;;;41.90;16.73;;;3.00;99.70;;;;;;5034697;28;20045;-63
2023/02/15 07:31:20;;;;;;;40.97;17.83;;;3.00;99.70;;;;;;5037343;28;20025;-63
2023/02/15 07:33:46;;;;;;;38.15;16.33;;;3.00;99.90;;;;;;5035716;28;20025;-63
2023/02/15 07:36:12;;;;;;;38.08;16.60;;;3.00;99.90;;;;;;5035338;28;20872;-62
2023/02/15 07:38:39;;;;;;;45.67;17.73;;;3.00;99.90;;;;;;5034657;28;20032;-62
2023/02/15 07:41:11;;;;;;;54.63;18.52;;;3.00;99.90;;;;;;5037620;28;20036;-62
2023/02/15 07:43:39;;;;;;;42.50;18.73;;;3.10;99.90;;;;;;5033223;28;20510;-62
2023/02/15 07:46:11;;;;;;;43.22;18.13;;;2.90;99.90;;;;;;5032602;28;20040;-61
2023/02/15 07:48:38;;;;;;;39.63;17.65;;;2.80;99.90;;;;;;5029995;28;20669;-62
2023/02/15 07:51:06;;;;;;;44.33;18.42;;;2.80;99.90;;;;;;5032965;28;20052;-62
2023/02/15 07:53:33;;;;;;;41.70;17.67;;;2.90;99.90;;;;;;5031218;28;20112;-61
2023/02/15 07:56:03;;;;;;;42.83;17.85;;;2.90;99.90;;;;;;5031057;28;20451;-62
2023/02/15 08:01:14;;;;;;;42.40;18.00;;;3.00;99.90;;;;;;5031215;28;20047;-62
2023/02/15 08:03:40;;;;;;;42.13;18.60;;;3.20;99.90;;;;;;5035195;28;20045;-61
2023/02/15 08:06:06;;;;;;;39.25;15.48;;;3.20;99.90;;;;;;5034720;28;20048;-62
2023/02/15 08:08:35;;;;;;;36.47;18.00;;;3.30;99.60;;;;;;5031301;28;20037;-62
2023/02/15 08:13:55;;;;;;;41.90;17.30;;;3.20;99.60;;;;;;5035820;28;21032;-62
2023/02/15 08:16:26;;;;;;;43.38;18.23;;;3.20;99.80;;;;;;5034517;28;20300;-62
2023/02/15 08:18:52;;;;;;;42.88;17.65;;;3.30;99.60;;;;;;5031045;28;20040;-61
2023/02/15 08:21:20;;;;;;;40.53;16.70;;;3.30;99.50;;;;;;5035197;28;20037;-62
2023/02/15 08:23:46;;;;;;;46.17;17.63;;;3.30;99.70;;;;;;5035640;28;20025;-62
2023/02/15 08:26:12;;;;;;;41.60;17.35;;;3.30;99.60;;;;;;5036705;28;20048;-63
2023/02/15 08:28:37;;;;;;;40.22;16.73;;;3.40;99.40;;;;;;5034856;28;20098;-62
2023/02/15 08:31:07;;;;;;;48.58;18.45;;;3.40;99.50;;;;;;5032093;28;20036;-62
2023/02/15 08:33:34;;;;;;;37.55;17.30;;;3.50;99.20;;;;;;5032242;28;20550;-62
2023/02/15 08:36:08;;;;;;;43.10;17.52;;;3.50;99.00;;;;;;5035001;28;20055;-62
2023/02/15 08:38:34;;;;;;;38.28;16.88;;;3.60;99.00;;;;;;5034106;28;20112;-62
2023/02/15 08:41:12;;;;;;;36.35;16.35;;;3.60;98.70;;;;;;5033204;28;20029;-62
2023/02/15 08:43:38;;;;;;;41.75;17.70;;;3.60;98.90;;;;;;5034487;28;20037;-62
2023/02/15 08:46:05;;;;;;;44.53;18.42;;;3.60;99.30;;;;;;5031060;28;20069;-62
2023/02/15 08:48:31;;;;;;;38.58;17.63;;;3.60;99.20;;;;;;5031528;28;20095;-63
2023/02/15 08:50:57;;;;;;;36.67;15.55;;;3.70;99.00;;;;;;5031839;28;20029;-62
2023/02/15 08:53:23;;;;;;;40.38;17.52;;;3.80;99.20;;;;;;5027530;28;20021;-62
2023/02/15 08:55:58;;;;;;;49.80;19.20;;;4.00;98.80;;;;;;5032044;28;20013;-62
2023/02/15 08:58:24;;;;;;;44.90;18.60;;;4.10;98.50;;;;;;5030887;28;20507;-62
2023/02/15 09:00:51;;;;;;;42.28;18.35;;;4.20;98.30;;;;;;5018506;28;20033;-63
2023/02/15 09:03:17;;;;;;;44.95;17.73;;;4.20;98.20;;;;;;5035776;28;20818;-62
2023/02/15 09:05:42;;;;;;;39.28;16.88;;;4.30;98.10;;;;;;5035987;28;20033;-63
2023/02/15 09:08:08;;;;;;;44.10;17.88;;;4.50;98.00;;;;;;5031525;28;20745;-63
2023/02/15 09:10:34;;;;;;;39.03;17.73;;;4.60;97.90;;;;;;5036023;28;20381;-63
2023/02/15 09:13:00;;;;;;;39.63;18.05;;;4.60;97.60;;;;;;5029681;28;20033;-62
2023/02/15 09:15:26;;;;;;;46.17;19.45;;;4.60;97.30;;;;;;5035704;28;20032;-63
2023/02/15 09:17:51;;;;;;;42.00;18.70;;;4.70;97.60;;;;;;5033842;28;20112;-62
2023/02/15 09:20:17;;;;;;;46.33;19.45;;;4.70;97.50;;;;;;5029157;28;20107;-63
2023/02/15 09:22:43;;;;;;;42.40;19.80;;;4.80;97.30;;;;;;5028657;28;20036;-62
2023/02/15 09:25:08;;;;;;;38.50;17.77;;;4.90;97.30;;;;;;5031655;28;20083;-63
2023/02/15 09:27:36;;;;;;;42.50;19.00;;;4.90;97.30;;;;;;5032432;28;20025;-63
2023/02/15 09:30:03;;;;;;;45.05;18.88;;;5.00;96.90;;;;;;5031169;28;20801;-63
2023/02/15 09:32:28;;;;;;;45.50;19.70;;;5.10;97.00;;;;;;5030150;28;20121;-63
2023/02/15 09:34:54;;;;;;;41.00;18.90;;;5.10;96.80;;;;;;5032421;28;20143;-63
2023/02/15 09:37:20;;;;;;;47.33;19.55;;;5.20;96.80;;;;;;5030739;28;20043;-63
2023/02/15 09:39:46;;;;;;;39.53;18.63;;;5.20;96.70;;;;;;5033917;28;20025;-63
2023/02/15 09:42:36;;;;;;;38.63;18.50;;;5.30;96.80;;;;;;5027430;28;20034;-63
2023/02/15 09:45:26;;;;;;;38.10;17.35;;;5.30;96.80;;;;;;5028198;28;20473;-63
2023/02/15 09:48:30;;;;;;;38.38;17.52;;;5.40;96.70;;;;;;5013442;28;20029;-62
2023/02/15 09:51:21;;;;;;;46.38;20.05;;;5.60;96.70;;;;;;5027986;28;20033;-62
2023/02/15 09:53:54;;;;;;;36.85;17.45;;;5.70;96.30;;;;;;5029081;28;20099;-63
2023/02/15 09:56:37;;;;;;;41.90;18.27;;;5.70;96.50;;;;;;5033660;28;20032;-63
2023/02/15 09:59:17;;;;;;;39.10;18.98;;;5.80;96.40;;;;;;5026422;28;20648;-62
2023/02/15 10:02:01;;;;;;;41.22;19.15;;;5.80;96.30;;;;;;5029923;28;20040;-63
2023/02/15 10:04:27;;;;;;;40.08;18.95;;;5.80;96.00;;;;;;5025039;28;20099;-63
2023/02/15 10:07:18;;;;;;;42.35;18.75;;;5.90;96.40;;;;;;5031979;28;20036;-63
2023/02/15 10:10:02;;;;;;;40.20;19.98;;;6.00;96.30;;;;;;5029049;28;20036;-63
2023/02/15 10:12:40;;;;;;;39.85;19.15;;;6.20;96.10;;;;;;5024688;28;20735;-63
2023/02/15 10:15:11;;;;;;;37.22;17.65;;;6.40;96.00;;;;;;5030335;28;20735;-62
2023/02/15 10:18:00;;;;;;;37.28;18.50;;;6.50;95.60;;;;;;5034192;28;20431;-62
2023/02/15 10:20:57;;;;;;;40.92;19.70;;;6.60;95.10;;;;;;5027180;28;20033;-62
2023/02/15 10:23:23;;;;;;;;;;;6.70;95.20;;;;;;5031078;28;20040;-63
2023/02/15 10:26:04;;;;;;;38.50;18.17;;;6.80;95.30;;;;;;5027686;28;19917;-62
2023/02/15 10:28:47;;;;;;;42.58;20.73;;;7.10;95.20;;;;;;5030426;28;20029;-63
2023/02/15 10:31:22;;;;;;;40.33;18.55;;;7.40;94.00;;;;;;5030151;28;20457;-62
2023/02/15 10:34:10;;;;;;;41.33;20.00;;;7.60;93.30;;;;;;5032694;28;20078;-63
2023/02/15 10:37:04;;;;;;;36.35;17.35;;;7.70;92.40;;;;;;5027682;28;20033;-63
2023/02/15 10:39:52;;;;;;;41.22;18.40;;;8.00;91.90;;;;;;5032340;28;20029;-63
2023/02/15 10:42:46;;;;;;;45.50;19.23;;;8.50;91.20;;;;;;5032108;28;20033;-63
2023/02/15 10:45:23;;;;;;;37.15;19.38;;;9.80;87.00;;;;;;5030454;28;20033;-62
2023/02/15 10:48:07;;;;;;;38.97;18.27;;;11.00;80.60;;;;;;5029759;28;20032;-62
2023/02/15 10:50:47;;;;;;;38.70;19.10;;;12.30;75.00;;;;;;5035486;28;20036;-63
2023/02/15 10:53:40;;;;;;;36.10;19.20;;;13.40;70.80;;;;;;5030482;28;20132;-63
2023/02/15 10:56:12;;;;;;;35.63;17.77;;;14.50;66.20;;;;;;5031037;28;20064;-63
2023/02/15 10:58:44;;;;;;;34.15;18.05;;;15.30;60.60;;;;;;5029682;28;20026;-63
2023/02/15 11:01:20;;;;;;;34.67;18.25;;;16.30;57.80;;;;;;5028268;28;20057;-63
2023/02/15 11:04:21;;;;;;;32.35;17.30;;;16.90;55.30;;;;;;5032644;28;20041;-63
2023/02/15 11:06:52;;;;;;;28.60;16.42;;;17.20;53.40;;;;;;5026610;28;20056;-63
2023/02/15 11:09:21;;;;;;;30.70;16.02;;;17.60;51.90;;;;;;5036790;28;20028;-63
2023/02/15 11:11:53;;;;;;;32.60;17.83;;;18.60;50.60;;;;;;5016723;28;20025;-63
2023/02/15 11:14:37;;;;;;;29.52;15.88;;;19.30;48.30;;;;;;5026270;28;20034;-63
2023/02/15 11:17:10;;;;;;;27.38;15.98;;;19.10;47.50;;;;;;5016239;28;20037;-63
2023/02/15 11:19:45;;;;;;;25.45;15.05;;;18.90;48.10;;;;;;5034854;28;20027;-63
2023/02/15 11:22:12;;;;;;;25.88;15.23;;;19.30;48.10;;;;;;5029777;28;20103;-63
2023/02/15 11:24:43;;;;;;;26.70;15.55;;;19.80;46.20;;;;;;5037015;28;20095;-64
2023/02/15 11:27:12;;;;;;;24.88;15.10;;;20.50;45.10;;;;;;5039500;28;20036;-64
2023/02/15 11:29:44;;;;;;;27.63;15.80;;;19.40;46.70;;;;;;5042903;28;20032;-64
2023/02/15 11:32:41;;;;;;;29.50;15.88;;;17.20;50.80;;;;;;5041881;28;20580;-64
2023/02/15 11:35:10;;;;;;;24.92;14.98;;;15.20;56.30;;;;;;5022030;28;20037;-64
2023/02/15 11:38:01;;;;;;;25.23;15.05;;;13.60;61.50;;;;;;5032577;28;20037;-64
2023/02/15 11:40:34;;;;;;;25.70;14.45;;;12.70;66.20;;;;;;5030815;28;20071;-64
2023/02/15 11:43:14;;;;;;;24.80;14.18;;;12.10;69.40;;;;;;5035506;28;20067;-64
2023/02/15 11:45:42;;;;;;;24.13;14.45;;;11.70;72.20;;;;;;5033880;28;20032;-66
2023/02/15 11:48:11;;;;;;;39.80;22.45;;;11.40;74.80;;;;;;5038027;28;20028;-64
2023/02/15 11:50:38;;;;;;;25.02;16.35;;;11.30;77.10;;;;;;5031589;28;20048;-64
2023/02/15 11:53:11;;;;;;;23.98;13.40;;;11.10;78.20;;;;;;5035401;28;20428;-66
2023/02/15 11:55:37;;;;;;;24.58;14.50;;;10.80;80.60;;;;;;5034825;28;20057;-64
2023/02/15 11:58:28;;;;;;;21.35;12.60;;;10.80;81.40;;;;;;5037726;28;20108;-64
2023/02/15 12:01:37;;;;;;;22.10;13.95;;;10.80;81.30;;;;;;5036583;28;20029;-64
2023/02/15 12:04:40;;;;;;;24.13;13.68;;;10.90;83.60;;;;;;5032809;28;20041;-63
2023/02/15 12:07:27;;;;;;;24.13;13.57;;;11.00;84.00;;;;;;5028910;28;20044;-64
2023/02/15 12:10:34;;;;;;;20.27;12.23;;;11.10;82.80;;;;;;5035572;28;20040;-64
2023/02/15 12:13:12;;;;;;;21.35;11.38;;;11.10;81.80;;;;;;5036513;28;20120;-64
2023/02/15 12:15:44;;;;;;;18.45;11.05;;;10.90;82.40;;;;;;5033869;28;20228;-64
2023/02/15 12:18:54;;;;;;;20.15;11.63;;;10.90;82.80;;;;;;5036576;28;20028;-64
2023/02/15 12:21:26;;;;;;;17.15;9.90;;;10.90;83.80;;;;;;5010540;28;20126;-64
2023/02/15 12:23:55;;;;;;;18.45;10.68;;;10.80;83.90;;;;;;5034056;28;20044;-64
2023/02/15 12:26:39;;;;;;;17.08;10.30;;;10.90;83.70;;;;;;5019445;28;20055;-64
2023/02/15 12:29:16;;;;;;;17.38;10.65;;;11.00;84.10;;;;;;5033491;28;20071;-62
2023/02/15 12:31:45;;;;;;;20.30;11.95;;;11.00;83.10;;;;;;5018757;28;20041;-63
2023/02/15 12:34:35;;;;;;;18.98;10.77;;;11.00;83.20;;;;;;5033426;28;20033;-64
2023/02/15 12:37:10;;;;;;;20.60;10.25;;;11.00;84.30;;;;;;5032047;28;20060;-64
2023/02/15 12:39:36;;;;;;;17.98;10.45;;;11.00;84.40;;;;;;5038223;28;20147;-63
2023/02/15 12:42:14;;;;;;;17.63;10.30;;;11.00;83.70;;;;;;5017457;28;20032;-63
2023/02/15 12:44:59;;;;;;;16.25;10.65;;;11.10;83.00;;;;;;5033644;28;20033;-63
2023/02/15 12:47:26;;;;;;;17.30;10.20;;;11.20;84.60;;;;;;5033137;28;20047;-63
2023/02/15 12:50:31;;;;;;;17.98;10.18;;;11.20;83.40;;;;;;5028748;28;20397;-64
2023/02/15 12:53:33;;;;;;;17.23;10.68;;;11.20;83.20;;;;;;5031653;28;20047;-64
2023/02/15 12:56:03;;;;;;;19.38;12.00;;;11.30;84.10;;;;;;5008354;28;20037;-64
2023/02/15 12:58:30;;;;;;;18.13;9.80;;;11.40;83.60;;;;;;5031497;28;20040;-64
2023/02/15 13:01:16;;;;;;;15.55;10.18;;;11.40;83.40;;;;;;5033040;28;20029;-63
2023/02/15 13:03:56;;;;;;;16.73;10.00;;;11.40;82.30;;;;;;5031965;28;20493;-66
2023/02/15 13:06:22;;;;;;;17.92;10.93;;;11.40;83.00;;;;;;5028804;28;20380;-63
2023/02/15 13:08:51;;;;;;;16.70;10.15;;;11.50;82.50;;;;;;5034557;28;20976;-63
2023/02/15 13:11:23;;;;;;;17.63;10.23;;;11.50;82.00;;;;;;5026814;28;20036;-66
2023/02/15 13:13:55;;;;;;;16.08;9.32;;;11.50;81.30;;;;;;5035405;28;20039;-64
2023/02/15 13:16:31;;;;;;;15.85;8.95;;;11.60;81.40;;;;;;5029158;28;20373;-64
2023/02/15 13:19:02;;;;;;;13.82;9.15;;;11.60;82.20;;;;;;5033410;28;20033;-66
2023/02/15 13:21:33;;;;;;;15.75;10.07;;;11.70;80.50;;;;;;5030432;28;20416;-63
2023/02/15 13:24:23;;;;;;;16.42;9.90;;;11.90;80.60;;;;;;5035185;28;20139;-64
2023/02/15 13:26:50;;;;;;;17.20;10.02;;;11.90;79.60;;;;;;5026447;28;20132;-63
2023/02/15 13:29:27;;;;;;;15.70;9.30;;;11.90;78.50;;;;;;5015037;28;20041;-64
2023/02/15 13:31:55;;;;;;;14.82;9.40;;;11.90;79.80;;;;;;5032222;28;20029;-64